createdAt,value
2022-09-28T00:14:40.298Z,7.7
2022-09-28T00:24:42.400Z,7.4
2022-09-28T00:34:44.118Z,7.3
2022-09-28T00:44:46.543Z,7.3
2022-09-28T00:54:48.919Z,7.1
2022-09-28T00:55:10.848Z,7.2
2022-09-28T01:04:58.050Z,6.9
2022-09-28T01:15:00.217Z,6.8
2022-09-28T01:25:02.335Z,6.9
2022-09-28T01:35:04.705Z,7
2022-09-28T01:45:06.490Z,6.9
2022-09-28T01:55:08.308Z,6.8
2022-09-28T02:05:10.137Z,6.9
2022-09-28T02:15:12.815Z,7
2022-09-28T02:25:14.851Z,6.9
2022-09-28T02:35:17.104Z,7
2022-09-28T02:45:19.391Z,7
2022-09-28T02:55:21.624Z,7
2022-09-28T03:05:23.813Z,7
2022-09-28T03:15:25.501Z,7.1
2022-09-28T03:25:27.575Z,7
2022-09-28T03:35:29.790Z,6.9
2022-09-28T03:45:32.306Z,6.9
2022-09-28T03:55:34.803Z,7
2022-09-28T04:25:41.282Z,7
2022-09-28T04:35:43.456Z,7
2022-09-28T04:45:45.397Z,7
2022-09-28T05:05:49.597Z,7.1
2022-09-28T05:15:54.860Z,7.1
2022-09-28T05:25:53.529Z,7.1
2022-09-28T07:06:14.489Z,7.6
2022-09-28T07:26:21.818Z,7.8
2022-09-28T07:46:23.097Z,8
2022-09-28T07:56:25.259Z,8.1
2022-09-28T08:06:26.967Z,8.1
2022-09-28T08:16:28.927Z,8.4
2022-09-28T08:26:31.158Z,8.4
2022-09-28T08:36:33.574Z,8.6
2022-09-28T08:46:35.665Z,8.5
2022-09-28T08:56:37.414Z,9.4
2022-09-28T09:06:39.918Z,9.7
2022-09-28T09:16:42.277Z,9.4
2022-09-28T09:26:44.428Z,9.8
2022-09-28T09:36:46.883Z,9.8
2022-09-28T09:46:49.243Z,10
2022-09-28T09:56:51.236Z,10.2
2022-09-28T10:36:59.423Z,10.4
2022-09-28T10:47:01.998Z,10.8
2022-09-28T10:57:04.487Z,10.8
2022-09-28T11:07:06.831Z,11.2
2022-09-28T11:17:09.480Z,12
2022-09-28T11:27:11.712Z,11.8
2022-09-28T11:47:15.680Z,12.9
2022-09-28T11:57:17.880Z,11.8
2022-09-28T12:07:20.445Z,11.7
2022-09-28T12:17:22.700Z,12.1
2022-09-28T12:27:24.566Z,13
2022-09-28T12:37:26.711Z,12.8
2022-09-28T12:47:28.502Z,13.1
2022-09-28T12:57:31.094Z,12.5
2022-09-28T13:07:32.843Z,11.9
2022-09-28T13:17:35.000Z,11.8
2022-09-28T13:37:38.635Z,12.5
2022-09-28T13:57:43.392Z,12.9
2022-09-28T14:17:48.402Z,12.7
2022-09-28T14:27:50.099Z,11.8
2022-09-28T14:47:54.596Z,11.9
2022-09-28T14:57:56.756Z,12.1
2022-09-28T15:07:58.812Z,12.4
2022-09-28T15:18:00.576Z,12.5
2022-09-28T15:28:03.036Z,12.4
2022-09-28T16:08:10.221Z,11
2022-09-28T16:18:12.531Z,11.1
2022-09-28T16:28:14.934Z,11
2022-09-28T16:38:16.917Z,10.9
2022-09-28T16:48:18.797Z,10.8
2022-09-28T16:58:20.891Z,10.7
2022-09-28T17:08:22.794Z,10.5
2022-09-28T17:18:24.727Z,10.4
2022-09-28T17:38:29.039Z,10.2
2022-09-28T17:48:31.254Z,10.1
2022-09-28T17:58:33.603Z,9.9
2022-09-28T18:08:36.187Z,9.8
2022-09-28T18:18:38.736Z,9.8
2022-09-28T18:28:41.107Z,9.6
2022-09-28T18:38:43.281Z,9.4
2022-09-28T18:58:46.966Z,9
2022-09-28T19:08:48.843Z,8.8
2022-09-28T19:18:51.271Z,8.5
2022-09-28T19:28:53.323Z,8.2
2022-09-28T19:48:57.629Z,7.7
2022-09-28T19:58:59.590Z,7.5
2022-09-28T20:09:01.445Z,7.3
2022-09-28T20:19:03.934Z,7.2
2022-09-28T20:29:05.914Z,7.2
2022-09-28T20:39:08.542Z,7.3
2022-09-28T20:49:10.211Z,7.4
2022-09-28T20:59:12.508Z,7.7
2022-09-28T21:09:14.393Z,7.8
2022-09-28T21:19:16.111Z,7.8
2022-09-28T21:29:17.887Z,7.9
2022-09-28T21:49:22.354Z,8
2022-09-28T21:59:24.817Z,7.9
2022-09-28T22:09:26.501Z,7.8
2022-09-28T22:19:28.841Z,7.6
2022-09-28T22:29:30.846Z,7.4
2022-09-28T22:39:36.765Z,6.9
2022-09-28T22:49:35.514Z,6.6
2022-09-28T22:59:37.998Z,6.3
2022-09-28T23:09:40.423Z,6.1
2022-09-28T23:19:42.070Z,5.9
2022-09-28T23:29:44.102Z,5.8
2022-09-28T23:39:45.994Z,5.5
2022-09-28T23:49:48.084Z,5.5
2022-09-28T23:59:50.438Z,5.5
